sensor_id;sensor_type;location;lat;lon;timestamp;P1;durP1;ratioP1;P2;durP2;ratioP2
21438;SDS011;10880;50.302;18.736;2023-12-14T00:01:44;35.17;;;14.70;;
21438;SDS011;10880;50.302;18.736;2023-12-14T00:04:11;29.67;;;13.10;;
21438;SDS011;10880;50.302;18.736;2023-12-14T00:06:38;40.97;;;17.40;;
21438;SDS011;10880;50.302;18.736;2023-12-14T00:09:05;31.90;;;13.90;;
21438;SDS011;10880;50.302;18.736;2023-12-14T00:11:40;33.67;;;14.77;;
21438;SDS011;10880;50.302;18.736;2023-12-14T00:14:07;34.17;;;14.57;;
21438;SDS011;10880;50.302;18.736;2023-12-14T00:16:34;32.70;;;13.03;;
21438;SDS011;10880;50.302;18.736;2023-12-14T00:19:03;28.73;;;12.10;;
21438;SDS011;10880;50.302;18.736;2023-12-14T00:21:29;28.83;;;11.43;;
21438;SDS011;10880;50.302;18.736;2023-12-14T00:23:56;29.87;;;13.23;;
21438;SDS011;10880;50.302;18.736;2023-12-14T00:26:23;35.37;;;14.53;;
21438;SDS011;10880;50.302;18.736;2023-12-14T00:28:49;32.07;;;14.23;;
21438;SDS011;10880;50.302;18.736;2023-12-14T00:31:16;27.80;;;13.10;;
21438;SDS011;10880;50.302;18.736;2023-12-14T00:33:43;27.73;;;12.90;;
21438;SDS011;10880;50.302;18.736;2023-12-14T00:36:17;28.87;;;12.60;;
21438;SDS011;10880;50.302;18.736;2023-12-14T00:38:44;29.63;;;12.80;;
21438;SDS011;10880;50.302;18.736;2023-12-14T00:41:11;27.83;;;11.87;;
21438;SDS011;10880;50.302;18.736;2023-12-14T00:43:39;30.97;;;14.00;;
21438;SDS011;10880;50.302;18.736;2023-12-14T00:46:06;39.47;;;16.33;;
21438;SDS011;10880;50.302;18.736;2023-12-14T00:48:35;32.93;;;15.03;;
21438;SDS011;10880;50.302;18.736;2023-12-14T00:51:02;39.17;;;16.73;;
21438;SDS011;10880;50.302;18.736;2023-12-14T00:53:29;35.93;;;14.97;;
21438;SDS011;10880;50.302;18.736;2023-12-14T00:55:56;35.53;;;15.33;;
21438;SDS011;10880;50.302;18.736;2023-12-14T00:58:22;36.03;;;15.40;;
21438;SDS011;10880;50.302;18.736;2023-12-14T01:00:49;39.50;;;16.77;;
21438;SDS011;10880;50.302;18.736;2023-12-14T01:03:17;35.80;;;16.27;;
21438;SDS011;10880;50.302;18.736;2023-12-14T01:05:43;35.97;;;15.70;;
21438;SDS011;10880;50.302;18.736;2023-12-14T01:08:10;29.00;;;13.63;;
21438;SDS011;10880;50.302;18.736;2023-12-14T01:10:37;28.67;;;13.10;;
21438;SDS011;10880;50.302;18.736;2023-12-14T01:13:04;28.50;;;13.83;;
21438;SDS011;10880;50.302;18.736;2023-12-14T01:15:30;30.47;;;13.50;;
21438;SDS011;10880;50.302;18.736;2023-12-14T01:17:57;29.17;;;12.30;;
21438;SDS011;10880;50.302;18.736;2023-12-14T01:20:24;25.83;;;12.00;;
21438;SDS011;10880;50.302;18.736;2023-12-14T01:22:51;25.07;;;12.23;;
21438;SDS011;10880;50.302;18.736;2023-12-14T01:25:17;34.73;;;14.60;;
21438;SDS011;10880;50.302;18.736;2023-12-14T01:27:44;29.23;;;14.10;;
21438;SDS011;10880;50.302;18.736;2023-12-14T01:30:11;28.33;;;13.20;;
21438;SDS011;10880;50.302;18.736;2023-12-14T01:32:37;26.93;;;12.50;;
21438;SDS011;10880;50.302;18.736;2023-12-14T01:35:04;29.30;;;13.87;;
21438;SDS011;10880;50.302;18.736;2023-12-14T01:37:31;30.10;;;13.27;;
21438;SDS011;10880;50.302;18.736;2023-12-14T01:39:58;25.40;;;11.63;;
21438;SDS011;10880;50.302;18.736;2023-12-14T01:42:25;25.03;;;11.93;;
21438;SDS011;10880;50.302;18.736;2023-12-14T01:44:53;35.47;;;14.17;;
21438;SDS011;10880;50.302;18.736;2023-12-14T01:47:20;31.13;;;14.13;;
21438;SDS011;10880;50.302;18.736;2023-12-14T01:49:47;36.70;;;15.70;;
21438;SDS011;10880;50.302;18.736;2023-12-14T01:52:14;29.13;;;13.10;;
21438;SDS011;10880;50.302;18.736;2023-12-14T01:54:41;24.63;;;11.50;;
21438;SDS011;10880;50.302;18.736;2023-12-14T01:57:08;27.77;;;12.07;;
21438;SDS011;10880;50.302;18.736;2023-12-14T01:59:34;25.57;;;12.40;;
21438;SDS011;10880;50.302;18.736;2023-12-14T02:02:04;27.13;;;13.70;;
21438;SDS011;10880;50.302;18.736;2023-12-14T02:04:31;26.93;;;13.57;;
21438;SDS011;10880;50.302;18.736;2023-12-14T02:06:58;34.23;;;16.07;;
21438;SDS011;10880;50.302;18.736;2023-12-14T02:09:26;27.87;;;14.30;;
21438;SDS011;10880;50.302;18.736;2023-12-14T02:11:53;31.00;;;14.93;;
21438;SDS011;10880;50.302;18.736;2023-12-14T02:14:21;32.30;;;15.47;;
21438;SDS011;10880;50.302;18.736;2023-12-14T02:16:49;25.23;;;12.90;;
21438;SDS011;10880;50.302;18.736;2023-12-14T02:19:15;26.03;;;11.73;;
21438;SDS011;10880;50.302;18.736;2023-12-14T02:21:43;20.10;;;9.60;;
21438;SDS011;10880;50.302;18.736;2023-12-14T02:24:10;29.97;;;14.80;;
21438;SDS011;10880;50.302;18.736;2023-12-14T02:26:36;26.40;;;13.27;;
21438;SDS011;10880;50.302;18.736;2023-12-14T02:29:03;25.50;;;12.97;;
21438;SDS011;10880;50.302;18.736;2023-12-14T02:31:30;26.70;;;13.43;;
21438;SDS011;10880;50.302;18.736;2023-12-14T02:33:57;26.43;;;12.80;;
21438;SDS011;10880;50.302;18.736;2023-12-14T02:36:23;35.23;;;15.97;;
21438;SDS011;10880;50.302;18.736;2023-12-14T02:38:51;32.17;;;15.53;;
21438;SDS011;10880;50.302;18.736;2023-12-14T02:41:17;31.47;;;15.77;;
21438;SDS011;10880;50.302;18.736;2023-12-14T02:43:44;31.47;;;14.80;;
21438;SDS011;10880;50.302;18.736;2023-12-14T02:46:11;25.97;;;12.83;;
21438;SDS011;10880;50.302;18.736;2023-12-14T02:48:41;27.07;;;12.60;;
21438;SDS011;10880;50.302;18.736;2023-12-14T02:51:12;27.53;;;13.07;;
21438;SDS011;10880;50.302;18.736;2023-12-14T02:53:41;29.63;;;14.53;;
21438;SDS011;10880;50.302;18.736;2023-12-14T02:56:10;29.57;;;14.13;;
21438;SDS011;10880;50.302;18.736;2023-12-14T02:58:39;28.33;;;13.13;;
21438;SDS011;10880;50.302;18.736;2023-12-14T03:01:06;25.30;;;12.20;;
21438;SDS011;10880;50.302;18.736;2023-12-14T03:03:33;21.20;;;11.07;;
21438;SDS011;10880;50.302;18.736;2023-12-14T03:05:59;21.03;;;10.73;;
21438;SDS011;10880;50.302;18.736;2023-12-14T03:08:26;19.83;;;9.53;;
21438;SDS011;10880;50.302;18.736;2023-12-14T03:10:53;18.70;;;9.43;;
21438;SDS011;10880;50.302;18.736;2023-12-14T03:13:20;20.37;;;9.70;;
21438;SDS011;10880;50.302;18.736;2023-12-14T03:15:46;23.80;;;10.67;;
21438;SDS011;10880;50.302;18.736;2023-12-14T03:18:14;19.10;;;9.67;;
21438;SDS011;10880;50.302;18.736;2023-12-14T03:20:41;22.53;;;10.30;;
21438;SDS011;10880;50.302;18.736;2023-12-14T03:23:08;24.63;;;10.93;;
21438;SDS011;10880;50.302;18.736;2023-12-14T03:25:35;20.47;;;10.50;;
21438;SDS011;10880;50.302;18.736;2023-12-14T03:28:02;24.13;;;11.60;;
21438;SDS011;10880;50.302;18.736;2023-12-14T03:30:29;20.70;;;10.10;;
21438;SDS011;10880;50.302;18.736;2023-12-14T03:32:57;27.83;;;12.07;;
21438;SDS011;10880;50.302;18.736;2023-12-14T03:35:25;21.57;;;9.33;;
21438;SDS011;10880;50.302;18.736;2023-12-14T03:37:52;24.03;;;9.83;;
21438;SDS011;10880;50.302;18.736;2023-12-14T03:40:19;24.80;;;11.13;;
21438;SDS011;10880;50.302;18.736;2023-12-14T03:42:46;29.50;;;12.57;;
21438;SDS011;10880;50.302;18.736;2023-12-14T03:45:12;25.27;;;10.87;;
21438;SDS011;10880;50.302;18.736;2023-12-14T03:47:39;24.27;;;11.17;;
21438;SDS011;10880;50.302;18.736;2023-12-14T03:50:06;19.53;;;9.17;;
21438;SDS011;10880;50.302;18.736;2023-12-14T03:52:33;18.93;;;8.97;;
21438;SDS011;10880;50.302;18.736;2023-12-14T03:55:02;22.93;;;10.27;;
21438;SDS011;10880;50.302;18.736;2023-12-14T03:57:29;22.47;;;11.90;;
21438;SDS011;10880;50.302;18.736;2023-12-14T03:59:56;25.70;;;11.90;;
21438;SDS011;10880;50.302;18.736;2023-12-14T04:02:23;26.00;;;12.07;;
21438;SDS011;10880;50.302;18.736;2023-12-14T04:04:51;32.87;;;13.70;;
21438;SDS011;10880;50.302;18.736;2023-12-14T04:07:18;26.07;;;12.03;;
21438;SDS011;10880;50.302;18.736;2023-12-14T04:09:46;24.20;;;11.47;;
21438;SDS011;10880;50.302;18.736;2023-12-14T04:12:14;23.87;;;10.93;;
21438;SDS011;10880;50.302;18.736;2023-12-14T04:14:41;25.53;;;11.40;;
21438;SDS011;10880;50.302;18.736;2023-12-14T04:17:08;22.67;;;10.07;;
21438;SDS011;10880;50.302;18.736;2023-12-14T04:19:34;30.00;;;12.50;;
21438;SDS011;10880;50.302;18.736;2023-12-14T04:22:01;33.67;;;13.43;;
21438;SDS011;10880;50.302;18.736;2023-12-14T04:24:29;31.60;;;12.50;;
21438;SDS011;10880;50.302;18.736;2023-12-14T04:26:56;31.60;;;12.53;;
21438;SDS011;10880;50.302;18.736;2023-12-14T04:29:23;23.27;;;9.23;;
21438;SDS011;10880;50.302;18.736;2023-12-14T04:31:49;22.83;;;10.27;;
21438;SDS011;10880;50.302;18.736;2023-12-14T04:34:16;28.50;;;11.40;;
21438;SDS011;10880;50.302;18.736;2023-12-14T04:36:45;28.10;;;11.30;;
21438;SDS011;10880;50.302;18.736;2023-12-14T04:39:12;27.00;;;11.00;;
21438;SDS011;10880;50.302;18.736;2023-12-14T04:41:38;23.93;;;9.77;;
21438;SDS011;10880;50.302;18.736;2023-12-14T04:44:05;26.77;;;10.97;;
21438;SDS011;10880;50.302;18.736;2023-12-14T04:46:32;25.13;;;10.67;;
21438;SDS011;10880;50.302;18.736;2023-12-14T04:48:59;29.90;;;12.50;;
21438;SDS011;10880;50.302;18.736;2023-12-14T04:51:26;34.00;;;14.00;;
21438;SDS011;10880;50.302;18.736;2023-12-14T04:53:54;38.20;;;14.50;;
21438;SDS011;10880;50.302;18.736;2023-12-14T04:56:20;28.77;;;11.33;;
21438;SDS011;10880;50.302;18.736;2023-12-14T04:58:47;26.60;;;11.40;;
21438;SDS011;10880;50.302;18.736;2023-12-14T05:01:15;23.87;;;9.70;;
21438;SDS011;10880;50.302;18.736;2023-12-14T05:03:42;29.47;;;11.77;;
21438;SDS011;10880;50.302;18.736;2023-12-14T05:06:08;32.77;;;11.60;;
21438;SDS011;10880;50.302;18.736;2023-12-14T05:08:35;37.47;;;13.03;;
21438;SDS011;10880;50.302;18.736;2023-12-14T05:11:02;32.87;;;12.03;;
21438;SDS011;10880;50.302;18.736;2023-12-14T05:13:29;29.10;;;11.63;;
21438;SDS011;10880;50.302;18.736;2023-12-14T05:15:58;34.40;;;12.90;;
21438;SDS011;10880;50.302;18.736;2023-12-14T05:18:25;34.23;;;11.70;;
21438;SDS011;10880;50.302;18.736;2023-12-14T05:20:53;31.70;;;12.73;;
21438;SDS011;10880;50.302;18.736;2023-12-14T05:23:20;31.47;;;11.63;;
21438;SDS011;10880;50.302;18.736;2023-12-14T05:25:47;29.37;;;11.50;;
21438;SDS011;10880;50.302;18.736;2023-12-14T05:28:13;28.63;;;11.53;;
21438;SDS011;10880;50.302;18.736;2023-12-14T05:30:40;33.10;;;11.93;;
21438;SDS011;10880;50.302;18.736;2023-12-14T05:33:07;34.40;;;12.53;;
21438;SDS011;10880;50.302;18.736;2023-12-14T05:35:34;25.17;;;10.47;;
21438;SDS011;10880;50.302;18.736;2023-12-14T05:38:01;21.33;;;8.87;;
21438;SDS011;10880;50.302;18.736;2023-12-14T05:40:27;23.07;;;9.03;;
21438;SDS011;10880;50.302;18.736;2023-12-14T05:42:54;34.67;;;12.17;;
21438;SDS011;10880;50.302;18.736;2023-12-14T05:45:21;31.20;;;11.37;;
21438;SDS011;10880;50.302;18.736;2023-12-14T05:47:47;28.37;;;11.13;;
21438;SDS011;10880;50.302;18.736;2023-12-14T05:50:14;26.40;;;10.83;;
21438;SDS011;10880;50.302;18.736;2023-12-14T05:52:41;26.67;;;10.00;;
21438;SDS011;10880;50.302;18.736;2023-12-14T05:55:08;19.30;;;7.90;;
21438;SDS011;10880;50.302;18.736;2023-12-14T05:57:38;22.07;;;9.60;;
21438;SDS011;10880;50.302;18.736;2023-12-14T06:00:05;24.97;;;9.87;;
21438;SDS011;10880;50.302;18.736;2023-12-14T06:02:33;23.63;;;9.80;;
21438;SDS011;10880;50.302;18.736;2023-12-14T06:05:02;18.87;;;8.87;;
21438;SDS011;10880;50.302;18.736;2023-12-14T06:07:29;25.30;;;10.30;;
21438;SDS011;10880;50.302;18.736;2023-12-14T06:09:55;33.37;;;11.53;;
21438;SDS011;10880;50.302;18.736;2023-12-14T06:12:22;32.23;;;12.97;;
21438;SDS011;10880;50.302;18.736;2023-12-14T06:14:48;29.90;;;11.90;;
21438;SDS011;10880;50.302;18.736;2023-12-14T06:17:17;27.60;;;11.23;;
21438;SDS011;10880;50.302;18.736;2023-12-14T06:19:44;25.30;;;10.40;;
21438;SDS011;10880;50.302;18.736;2023-12-14T06:22:10;29.50;;;10.73;;
21438;SDS011;10880;50.302;18.736;2023-12-14T06:24:37;24.03;;;9.63;;
21438;SDS011;10880;50.302;18.736;2023-12-14T06:27:05;29.37;;;11.87;;
21438;SDS011;10880;50.302;18.736;2023-12-14T06:29:32;25.23;;;11.30;;
21438;SDS011;10880;50.302;18.736;2023-12-14T06:31:59;24.17;;;9.47;;
21438;SDS011;10880;50.302;18.736;2023-12-14T06:34:25;21.70;;;9.30;;
21438;SDS011;10880;50.302;18.736;2023-12-14T06:36:52;27.03;;;10.83;;
21438;SDS011;10880;50.302;18.736;2023-12-14T06:39:20;25.60;;;10.90;;
21438;SDS011;10880;50.302;18.736;2023-12-14T06:41:47;30.60;;;11.53;;
21438;SDS011;10880;50.302;18.736;2023-12-14T06:44:14;27.77;;;12.13;;
21438;SDS011;10880;50.302;18.736;2023-12-14T06:46:41;31.80;;;12.23;;
21438;SDS011;10880;50.302;18.736;2023-12-14T06:49:07;19.53;;;9.60;;
21438;SDS011;10880;50.302;18.736;2023-12-14T06:51:34;24.43;;;9.90;;
21438;SDS011;10880;50.302;18.736;2023-12-14T06:54:03;24.30;;;10.20;;
21438;SDS011;10880;50.302;18.736;2023-12-14T06:56:30;19.63;;;9.30;;
21438;SDS011;10880;50.302;18.736;2023-12-14T06:58:57;26.83;;;10.93;;
21438;SDS011;10880;50.302;18.736;2023-12-14T07:01:24;20.47;;;9.43;;
21438;SDS011;10880;50.302;18.736;2023-12-14T07:03:51;30.40;;;12.37;;
21438;SDS011;10880;50.302;18.736;2023-12-14T07:06:18;27.97;;;12.27;;
21438;SDS011;10880;50.302;18.736;2023-12-14T07:08:46;28.80;;;11.80;;
21438;SDS011;10880;50.302;18.736;2023-12-14T07:11:15;24.20;;;10.60;;
21438;SDS011;10880;50.302;18.736;2023-12-14T07:13:45;32.50;;;13.60;;
21438;SDS011;10880;50.302;18.736;2023-12-14T07:16:12;27.70;;;11.90;;
21438;SDS011;10880;50.302;18.736;2023-12-14T07:18:41;25.17;;;10.80;;
21438;SDS011;10880;50.302;18.736;2023-12-14T07:21:08;22.53;;;10.40;;
21438;SDS011;10880;50.302;18.736;2023-12-14T07:23:36;21.00;;;9.57;;
21438;SDS011;10880;50.302;18.736;2023-12-14T07:26:03;21.03;;;9.67;;
21438;SDS011;10880;50.302;18.736;2023-12-14T07:28:30;19.33;;;8.03;;
21438;SDS011;10880;50.302;18.736;2023-12-14T07:30:57;20.30;;;9.13;;
21438;SDS011;10880;50.302;18.736;2023-12-14T07:33:24;18.77;;;8.60;;
21438;SDS011;10880;50.302;18.736;2023-12-14T07:35:53;25.23;;;10.50;;
21438;SDS011;10880;50.302;18.736;2023-12-14T07:38:20;18.60;;;8.87;;
21438;SDS011;10880;50.302;18.736;2023-12-14T07:40:48;21.00;;;8.93;;
21438;SDS011;10880;50.302;18.736;2023-12-14T07:43:15;20.10;;;8.80;;
21438;SDS011;10880;50.302;18.736;2023-12-14T07:45:42;21.33;;;9.93;;
21438;SDS011;10880;50.302;18.736;2023-12-14T07:48:09;21.77;;;9.47;;
21438;SDS011;10880;50.302;18.736;2023-12-14T07:50:36;17.30;;;8.03;;
21438;SDS011;10880;50.302;18.736;2023-12-14T07:53:03;21.30;;;9.43;;
21438;SDS011;10880;50.302;18.736;2023-12-14T07:55:30;19.27;;;9.33;;
21438;SDS011;10880;50.302;18.736;2023-12-14T07:57:58;22.07;;;9.37;;
21438;SDS011;10880;50.302;18.736;2023-12-14T08:00:25;21.43;;;10.03;;
21438;SDS011;10880;50.302;18.736;2023-12-14T08:02:53;24.57;;;11.57;;
21438;SDS011;10880;50.302;18.736;2023-12-14T08:05:21;21.53;;;10.13;;
21438;SDS011;10880;50.302;18.736;2023-12-14T08:07:47;22.00;;;10.13;;
21438;SDS011;10880;50.302;18.736;2023-12-14T08:10:18;31.87;;;13.57;;
21438;SDS011;10880;50.302;18.736;2023-12-14T08:12:45;21.23;;;10.07;;
21438;SDS011;10880;50.302;18.736;2023-12-14T08:15:13;22.63;;;10.83;;
21438;SDS011;10880;50.302;18.736;2023-12-14T08:17:39;21.27;;;10.20;;
21438;SDS011;10880;50.302;18.736;2023-12-14T08:20:07;20.17;;;9.53;;
21438;SDS011;10880;50.302;18.736;2023-12-14T08:22:34;18.47;;;9.00;;
21438;SDS011;10880;50.302;18.736;2023-12-14T08:25:01;27.97;;;11.50;;
21438;SDS011;10880;50.302;18.736;2023-12-14T08:27:29;25.87;;;10.47;;
21438;SDS011;10880;50.302;18.736;2023-12-14T08:29:56;33.10;;;12.73;;
21438;SDS011;10880;50.302;18.736;2023-12-14T08:32:23;33.97;;;13.67;;
21438;SDS011;10880;50.302;18.736;2023-12-14T08:34:49;26.93;;;11.37;;
21438;SDS011;10880;50.302;18.736;2023-12-14T08:37:18;27.70;;;12.50;;
21438;SDS011;10880;50.302;18.736;2023-12-14T08:39:45;31.60;;;13.90;;
21438;SDS011;10880;50.302;18.736;2023-12-14T08:42:13;28.20;;;12.20;;
21438;SDS011;10880;50.302;18.736;2023-12-14T08:44:40;30.67;;;14.43;;
21438;SDS011;10880;50.302;18.736;2023-12-14T08:47:07;41.77;;;17.27;;
21438;SDS011;10880;50.302;18.736;2023-12-14T08:49:34;29.30;;;13.13;;
21438;SDS011;10880;50.302;18.736;2023-12-14T08:52:03;26.63;;;12.33;;
21438;SDS011;10880;50.302;18.736;2023-12-14T08:54:30;28.30;;;12.53;;
21438;SDS011;10880;50.302;18.736;2023-12-14T08:56:59;21.67;;;10.27;;
21438;SDS011;10880;50.302;18.736;2023-12-14T08:59:27;18.30;;;9.30;;
21438;SDS011;10880;50.302;18.736;2023-12-14T09:01:53;25.23;;;11.17;;
21438;SDS011;10880;50.302;18.736;2023-12-14T09:04:20;25.93;;;11.87;;
21438;SDS011;10880;50.302;18.736;2023-12-14T09:06:48;24.83;;;11.67;;
21438;SDS011;10880;50.302;18.736;2023-12-14T09:09:15;23.43;;;10.07;;
21438;SDS011;10880;50.302;18.736;2023-12-14T09:11:42;23.50;;;10.83;;
21438;SDS011;10880;50.302;18.736;2023-12-14T09:14:09;20.77;;;9.97;;
21438;SDS011;10880;50.302;18.736;2023-12-14T09:16:36;17.57;;;9.00;;
21438;SDS011;10880;50.302;18.736;2023-12-14T09:19:03;19.67;;;8.50;;
21438;SDS011;10880;50.302;18.736;2023-12-14T09:21:29;18.60;;;8.10;;
21438;SDS011;10880;50.302;18.736;2023-12-14T09:23:56;13.63;;;7.17;;
21438;SDS011;10880;50.302;18.736;2023-12-14T09:26:24;15.33;;;7.50;;
21438;SDS011;10880;50.302;18.736;2023-12-14T09:28:51;14.90;;;7.63;;
21438;SDS011;10880;50.302;18.736;2023-12-14T09:31:18;16.23;;;7.40;;
21438;SDS011;10880;50.302;18.736;2023-12-14T09:33:45;21.10;;;9.80;;
21438;SDS011;10880;50.302;18.736;2023-12-14T09:36:12;23.97;;;10.73;;
21438;SDS011;10880;50.302;18.736;2023-12-14T09:38:39;22.17;;;9.50;;
21438;SDS011;10880;50.302;18.736;2023-12-14T09:41:05;23.47;;;10.70;;
21438;SDS011;10880;50.302;18.736;2023-12-14T09:43:33;23.00;;;10.10;;
21438;SDS011;10880;50.302;18.736;2023-12-14T09:46:00;27.93;;;11.37;;
21438;SDS011;10880;50.302;18.736;2023-12-14T09:48:28;26.23;;;11.30;;
21438;SDS011;10880;50.302;18.736;2023-12-14T09:50:55;26.80;;;11.77;;
21438;SDS011;10880;50.302;18.736;2023-12-14T09:53:23;29.23;;;13.03;;
21438;SDS011;10880;50.302;18.736;2023-12-14T09:55:50;26.97;;;11.33;;
21438;SDS011;10880;50.302;18.736;2023-12-14T09:58:17;27.97;;;12.07;;
21438;SDS011;10880;50.302;18.736;2023-12-14T10:00:43;28.97;;;11.40;;
21438;SDS011;10880;50.302;18.736;2023-12-14T10:03:23;28.93;;;11.57;;
21438;SDS011;10880;50.302;18.736;2023-12-14T10:05:52;33.87;;;14.70;;
21438;SDS011;10880;50.302;18.736;2023-12-14T10:08:19;30.17;;;12.67;;
21438;SDS011;10880;50.302;18.736;2023-12-14T10:10:48;26.20;;;11.20;;
21438;SDS011;10880;50.302;18.736;2023-12-14T10:13:17;30.97;;;12.47;;
21438;SDS011;10880;50.302;18.736;2023-12-14T10:15:44;29.37;;;12.40;;
21438;SDS011;10880;50.302;18.736;2023-12-14T10:18:22;23.70;;;10.27;;
21438;SDS011;10880;50.302;18.736;2023-12-14T10:20:51;22.87;;;9.33;;
21438;SDS011;10880;50.302;18.736;2023-12-14T10:23:20;27.67;;;11.90;;
21438;SDS011;10880;50.302;18.736;2023-12-14T10:25:47;33.97;;;14.67;;
21438;SDS011;10880;50.302;18.736;2023-12-14T10:28:14;30.97;;;13.30;;
21438;SDS011;10880;50.302;18.736;2023-12-14T10:30:41;28.40;;;12.53;;
21438;SDS011;10880;50.302;18.736;2023-12-14T10:33:08;26.13;;;11.20;;
21438;SDS011;10880;50.302;18.736;2023-12-14T10:35:35;24.43;;;10.93;;
21438;SDS011;10880;50.302;18.736;2023-12-14T10:38:05;24.30;;;10.27;;
21438;SDS011;10880;50.302;18.736;2023-12-14T10:40:35;28.77;;;12.47;;
21438;SDS011;10880;50.302;18.736;2023-12-14T10:43:06;30.80;;;12.27;;
21438;SDS011;10880;50.302;18.736;2023-12-14T10:45:34;24.43;;;10.93;;
21438;SDS011;10880;50.302;18.736;2023-12-14T10:48:04;22.00;;;8.97;;
21438;SDS011;10880;50.302;18.736;2023-12-14T10:50:32;27.03;;;10.90;;
21438;SDS011;10880;50.302;18.736;2023-12-14T10:53:00;26.53;;;11.13;;
21438;SDS011;10880;50.302;18.736;2023-12-14T10:58:04;23.73;;;10.17;;
21438;SDS011;10880;50.302;18.736;2023-12-14T11:00:31;21.90;;;9.70;;
21438;SDS011;10880;50.302;18.736;2023-12-14T11:02:58;26.73;;;11.43;;
21438;SDS011;10880;50.302;18.736;2023-12-14T11:05:26;24.60;;;10.87;;
21438;SDS011;10880;50.302;18.736;2023-12-14T11:08:03;23.37;;;9.87;;
21438;SDS011;10880;50.302;18.736;2023-12-14T11:10:42;34.73;;;13.43;;
21438;SDS011;10880;50.302;18.736;2023-12-14T11:13:18;29.27;;;11.70;;
21438;SDS011;10880;50.302;18.736;2023-12-14T11:15:47;26.57;;;10.87;;
21438;SDS011;10880;50.302;18.736;2023-12-14T11:20:57;28.10;;;11.70;;
21438;SDS011;10880;50.302;18.736;2023-12-14T11:25:56;24.13;;;10.63;;
21438;SDS011;10880;50.302;18.736;2023-12-14T11:28:28;26.93;;;11.80;;
21438;SDS011;10880;50.302;18.736;2023-12-14T11:31:11;23.67;;;11.40;;
21438;SDS011;10880;50.302;18.736;2023-12-14T11:33:39;27.33;;;12.10;;
21438;SDS011;10880;50.302;18.736;2023-12-14T11:36:07;20.83;;;9.60;;
21438;SDS011;10880;50.302;18.736;2023-12-14T11:38:35;21.47;;;10.00;;
21438;SDS011;10880;50.302;18.736;2023-12-14T11:41:02;25.83;;;11.40;;
21438;SDS011;10880;50.302;18.736;2023-12-14T11:43:29;23.93;;;10.93;;
21438;SDS011;10880;50.302;18.736;2023-12-14T11:46:04;22.23;;;9.90;;
21438;SDS011;10880;50.302;18.736;2023-12-14T11:48:31;29.37;;;13.73;;
21438;SDS011;10880;50.302;18.736;2023-12-14T11:50:58;26.33;;;11.90;;
21438;SDS011;10880;50.302;18.736;2023-12-14T11:53:26;23.93;;;11.63;;
21438;SDS011;10880;50.302;18.736;2023-12-14T11:55:53;21.90;;;10.70;;
21438;SDS011;10880;50.302;18.736;2023-12-14T11:58:19;31.13;;;14.77;;
21438;SDS011;10880;50.302;18.736;2023-12-14T12:00:48;24.33;;;12.50;;
21438;SDS011;10880;50.302;18.736;2023-12-14T12:03:16;26.70;;;13.03;;
21438;SDS011;10880;50.302;18.736;2023-12-14T12:05:48;28.90;;;12.80;;
21438;SDS011;10880;50.302;18.736;2023-12-14T12:08:16;22.27;;;10.73;;
21438;SDS011;10880;50.302;18.736;2023-12-14T12:10:45;28.83;;;13.10;;
21438;SDS011;10880;50.302;18.736;2023-12-14T12:13:16;27.30;;;11.63;;
21438;SDS011;10880;50.302;18.736;2023-12-14T12:15:44;18.57;;;8.80;;
21438;SDS011;10880;50.302;18.736;2023-12-14T12:18:14;16.80;;;9.07;;
21438;SDS011;10880;50.302;18.736;2023-12-14T12:20:43;17.03;;;8.40;;
21438;SDS011;10880;50.302;18.736;2023-12-14T12:23:10;19.53;;;9.03;;
21438;SDS011;10880;50.302;18.736;2023-12-14T12:25:36;17.47;;;8.50;;
21438;SDS011;10880;50.302;18.736;2023-12-14T12:28:03;18.17;;;9.40;;
21438;SDS011;10880;50.302;18.736;2023-12-14T12:30:31;18.13;;;8.07;;
21438;SDS011;10880;50.302;18.736;2023-12-14T12:32:57;18.83;;;8.70;;
21438;SDS011;10880;50.302;18.736;2023-12-14T12:35:24;18.43;;;8.90;;
21438;SDS011;10880;50.302;18.736;2023-12-14T12:37:51;21.20;;;10.10;;
21438;SDS011;10880;50.302;18.736;2023-12-14T12:40:21;21.20;;;10.60;;
21438;SDS011;10880;50.302;18.736;2023-12-14T12:42:49;19.40;;;9.30;;
21438;SDS011;10880;50.302;18.736;2023-12-14T12:45:39;16.27;;;7.80;;
21438;SDS011;10880;50.302;18.736;2023-12-14T12:48:06;15.87;;;8.33;;
21438;SDS011;10880;50.302;18.736;2023-12-14T12:50:33;15.20;;;7.90;;
21438;SDS011;10880;50.302;18.736;2023-12-14T12:53:01;17.17;;;8.27;;
21438;SDS011;10880;50.302;18.736;2023-12-14T12:55:28;20.93;;;9.80;;
21438;SDS011;10880;50.302;18.736;2023-12-14T12:57:55;24.57;;;11.67;;
21438;SDS011;10880;50.302;18.736;2023-12-14T13:00:24;18.20;;;9.00;;
21438;SDS011;10880;50.302;18.736;2023-12-14T13:02:51;18.33;;;9.80;;
21438;SDS011;10880;50.302;18.736;2023-12-14T13:05:18;17.17;;;9.13;;
21438;SDS011;10880;50.302;18.736;2023-12-14T13:07:48;17.70;;;9.50;;
21438;SDS011;10880;50.302;18.736;2023-12-14T13:10:15;18.07;;;9.47;;
21438;SDS011;10880;50.302;18.736;2023-12-14T13:12:44;17.67;;;8.40;;
21438;SDS011;10880;50.302;18.736;2023-12-14T13:15:11;18.13;;;9.00;;
21438;SDS011;10880;50.302;18.736;2023-12-14T13:17:38;21.63;;;10.53;;
21438;SDS011;10880;50.302;18.736;2023-12-14T13:20:05;21.83;;;10.77;;
21438;SDS011;10880;50.302;18.736;2023-12-14T13:22:33;22.10;;;11.47;;
21438;SDS011;10880;50.302;18.736;2023-12-14T13:24:59;24.80;;;11.70;;
21438;SDS011;10880;50.302;18.736;2023-12-14T13:27:27;21.07;;;10.07;;
21438;SDS011;10880;50.302;18.736;2023-12-14T13:29:55;20.97;;;10.57;;
21438;SDS011;10880;50.302;18.736;2023-12-14T13:32:21;19.57;;;10.07;;
21438;SDS011;10880;50.302;18.736;2023-12-14T13:34:48;14.97;;;7.43;;
21438;SDS011;10880;50.302;18.736;2023-12-14T13:37:15;14.43;;;7.63;;
21438;SDS011;10880;50.302;18.736;2023-12-14T13:39:42;24.83;;;11.10;;
21438;SDS011;10880;50.302;18.736;2023-12-14T13:42:09;18.10;;;9.47;;
21438;SDS011;10880;50.302;18.736;2023-12-14T13:44:35;16.60;;;8.63;;
21438;SDS011;10880;50.302;18.736;2023-12-14T13:47:03;17.83;;;9.70;;
21438;SDS011;10880;50.302;18.736;2023-12-14T13:49:30;18.77;;;9.63;;
21438;SDS011;10880;50.302;18.736;2023-12-14T13:51:57;16.10;;;8.77;;
21438;SDS011;10880;50.302;18.736;2023-12-14T13:54:25;16.40;;;8.03;;
21438;SDS011;10880;50.302;18.736;2023-12-14T13:56:58;17.03;;;8.63;;
21438;SDS011;10880;50.302;18.736;2023-12-14T13:59:27;17.30;;;8.73;;
21438;SDS011;10880;50.302;18.736;2023-12-14T14:01:56;13.43;;;7.70;;
21438;SDS011;10880;50.302;18.736;2023-12-14T14:04:24;18.03;;;9.27;;
21438;SDS011;10880;50.302;18.736;2023-12-14T14:06:51;17.83;;;9.20;;
21438;SDS011;10880;50.302;18.736;2023-12-14T14:09:23;18.90;;;10.47;;
21438;SDS011;10880;50.302;18.736;2023-12-14T14:11:51;17.27;;;9.03;;
21438;SDS011;10880;50.302;18.736;2023-12-14T14:14:24;15.93;;;8.40;;
21438;SDS011;10880;50.302;18.736;2023-12-14T14:16:52;24.10;;;11.20;;
21438;SDS011;10880;50.302;18.736;2023-12-14T14:19:21;20.67;;;10.43;;
21438;SDS011;10880;50.302;18.736;2023-12-14T14:21:55;25.47;;;12.63;;
21438;SDS011;10880;50.302;18.736;2023-12-14T14:24:22;26.03;;;11.87;;